createdAt,value
2024-04-25T00:00:14.843Z,1.72
2024-04-25T00:02:44.501Z,1.74
2024-04-25T00:05:11.827Z,1.70
2024-04-25T00:07:38.800Z,1.82
2024-04-25T00:10:05.944Z,1.77
2024-04-25T00:12:33.029Z,1.69
2024-04-25T00:15:02.820Z,1.69
2024-04-25T00:17:30.141Z,1.88
2024-04-25T00:20:00.345Z,1.98
2024-04-25T00:22:27.290Z,1.91
2024-04-25T00:24:54.482Z,1.93
2024-04-25T00:27:21.607Z,1.93
2024-04-25T00:29:51.689Z,1.79
2024-04-25T00:32:18.690Z,1.83
2024-04-25T00:34:45.816Z,1.89
2024-04-25T00:37:15.537Z,1.90
2024-04-25T00:39:43.122Z,1.79
2024-04-25T00:42:15.412Z,1.76
2024-04-25T00:44:42.416Z,1.84
2024-04-25T00:47:09.862Z,1.96
2024-04-25T00:49:38.127Z,1.99
2024-04-25T00:52:05.838Z,2.00
2024-04-25T00:54:36.064Z,1.96
2024-04-25T00:57:04.325Z,1.91
2024-04-25T00:59:32.609Z,1.91
2024-04-25T01:02:01.765Z,1.90
2024-04-25T01:04:33.033Z,1.94
2024-04-25T01:07:01.898Z,2.00
2024-04-25T01:09:29.587Z,1.99
2024-04-25T01:11:59.649Z,2.14
2024-04-25T01:14:26.974Z,2.12
2024-04-25T01:16:54.015Z,2.11
2024-04-25T01:19:22.290Z,2.07
2024-04-25T01:21:50.160Z,2.11
2024-04-25T01:24:19.852Z,1.96
2024-04-25T01:26:50.481Z,1.97
2024-04-25T01:29:19.217Z,2.00
2024-04-25T01:31:47.453Z,2.02
2024-04-25T01:34:15.975Z,2.03
2024-04-25T01:36:44.229Z,1.94
2024-04-25T01:39:12.083Z,1.96
2024-04-25T01:41:39.299Z,1.90
2024-04-25T01:44:09.213Z,1.93
2024-04-25T01:46:36.559Z,1.85
2024-04-25T01:49:04.047Z,1.86
2024-04-25T01:51:31.857Z,1.78
2024-04-25T01:53:58.832Z,1.70
2024-04-25T01:56:26.020Z,1.73
2024-04-25T01:58:54.444Z,1.65
2024-04-25T02:01:27.059Z,1.62
2024-04-25T02:03:54.053Z,1.53
2024-04-25T02:06:21.017Z,1.49
2024-04-25T02:08:48.086Z,1.56
2024-04-25T02:11:15.055Z,1.57
2024-04-25T02:13:42.020Z,1.56
2024-04-25T02:16:09.155Z,1.57
2024-04-25T02:18:38.819Z,1.50
2024-04-25T02:21:24.286Z,1.46
2024-04-25T02:24:10.121Z,1.39
2024-04-25T02:26:37.347Z,1.40
2024-04-25T02:29:04.497Z,1.28
2024-04-25T02:31:34.202Z,1.45
2024-04-25T02:34:04.083Z,1.37
2024-04-25T02:36:31.162Z,1.29
2024-04-25T02:38:59.706Z,1.32
2024-04-25T02:41:26.788Z,1.35
2024-04-25T02:43:53.888Z,1.28
2024-04-25T02:46:22.331Z,1.33
2024-04-25T02:48:49.472Z,1.40
2024-04-25T02:51:19.192Z,1.37
2024-04-25T02:53:48.844Z,1.39
2024-04-25T02:56:17.774Z,1.39
2024-04-25T02:58:47.428Z,1.35
2024-04-25T03:01:14.474Z,1.31
2024-04-25T03:03:41.531Z,1.41
2024-04-25T03:06:08.682Z,1.35
2024-04-25T03:08:38.440Z,1.51
2024-04-25T03:11:06.341Z,1.48
2024-04-25T03:13:35.861Z,1.66
2024-04-25T03:16:06.137Z,1.46
2024-04-25T03:18:34.529Z,1.62
2024-04-25T03:21:06.955Z,1.51
2024-04-25T03:23:40.094Z,1.67
2024-04-25T03:26:07.833Z,1.63
2024-04-25T03:28:35.480Z,1.69
2024-04-25T03:31:03.058Z,1.62
2024-04-25T03:33:30.325Z,1.75
2024-04-25T03:35:57.508Z,1.79
2024-04-25T03:38:24.725Z,1.81
2024-04-25T03:40:54.804Z,1.76
2024-04-25T03:43:21.883Z,1.80
2024-04-25T03:45:48.907Z,1.86
2024-04-25T03:48:16.142Z,1.86
2024-04-25T03:50:43.457Z,1.87
2024-04-25T03:53:14.221Z,1.90
2024-04-25T03:55:42.850Z,1.89
2024-04-25T03:58:12.797Z,1.78
2024-04-25T04:00:39.851Z,1.94
2024-04-25T04:03:08.221Z,1.90
2024-04-25T04:05:35.992Z,1.85
2024-04-25T04:08:03.826Z,1.91
2024-04-25T04:10:30.765Z,1.83
2024-04-25T04:12:57.884Z,1.95
2024-04-25T04:15:27.433Z,1.93
2024-04-25T04:17:54.415Z,1.95
2024-04-25T04:20:21.557Z,1.84
2024-04-25T04:22:49.151Z,1.90
2024-04-25T04:25:16.119Z,1.93
2024-04-25T04:27:44.761Z,1.81
2024-04-25T04:30:12.506Z,1.78
2024-04-25T04:32:42.499Z,1.84
2024-04-25T04:35:14.618Z,1.97
2024-04-25T04:37:41.580Z,1.77
2024-04-25T04:40:09.312Z,1.81
2024-04-25T04:42:36.901Z,1.88
2024-04-25T04:45:04.308Z,1.78
2024-04-25T04:47:31.305Z,1.67
2024-04-25T04:50:01.241Z,1.79
2024-04-25T04:52:33.536Z,1.66
2024-04-25T04:55:00.977Z,1.70
2024-04-25T04:57:29.306Z,1.59
2024-04-25T04:59:56.477Z,1.45
2024-04-25T05:02:23.506Z,1.48
2024-04-25T05:04:50.668Z,1.55
2024-04-25T05:07:20.254Z,1.53
2024-04-25T05:09:47.294Z,1.50
2024-04-25T05:12:14.651Z,1.51
2024-04-25T05:14:41.674Z,1.46
2024-04-25T05:17:08.834Z,1.31
2024-04-25T05:19:35.956Z,1.38
2024-04-25T05:22:02.907Z,1.34
2024-04-25T05:24:32.716Z,1.35
2024-04-25T05:26:59.812Z,1.31
2024-04-25T05:29:26.873Z,1.46
2024-04-25T05:31:53.898Z,1.49
2024-04-25T05:34:20.920Z,1.48
2024-04-25T05:36:50.633Z,1.42
2024-04-25T05:39:17.693Z,1.37
2024-04-25T05:41:47.544Z,1.41
2024-04-25T05:44:14.579Z,1.22
2024-04-25T05:46:41.719Z,1.32
2024-04-25T05:49:08.788Z,1.36
2024-04-25T05:51:35.719Z,1.37
2024-04-25T05:54:09.221Z,1.40
2024-04-25T05:56:36.173Z,1.34
2024-04-25T05:59:05.927Z,1.33
2024-04-25T06:01:32.939Z,1.44
2024-04-25T06:04:00.143Z,1.46
2024-04-25T06:06:28.215Z,1.43
2024-04-25T06:08:58.032Z,1.34
2024-04-25T06:11:27.750Z,1.44
2024-04-25T06:13:54.869Z,1.33
2024-04-25T06:16:26.929Z,1.47
2024-04-25T06:18:53.903Z,1.33
2024-04-25T06:21:20.900Z,1.45
2024-04-25T06:23:48.427Z,1.46
2024-04-25T06:26:18.427Z,1.53
2024-04-25T06:28:45.432Z,1.50
2024-04-25T06:31:13.647Z,1.51
2024-04-25T06:33:43.500Z,1.60
2024-04-25T06:36:10.618Z,1.42
2024-04-25T06:38:37.720Z,1.63
2024-04-25T06:41:05.138Z,1.62
2024-04-25T06:43:35.108Z,1.72
2024-04-25T06:46:02.830Z,1.72
2024-04-25T06:48:30.002Z,1.75
2024-04-25T06:50:59.677Z,1.76
2024-04-25T06:53:26.757Z,1.91
2024-04-25T06:55:55.664Z,1.91
2024-04-25T06:58:22.684Z,1.92
2024-04-25T07:00:49.692Z,1.99
2024-04-25T07:03:16.676Z,1.97
2024-04-25T07:05:43.862Z,2.00
2024-04-25T07:08:15.421Z,2.09
2024-04-25T07:10:42.562Z,2.17
2024-04-25T07:13:11.791Z,2.13
2024-04-25T07:15:38.915Z,2.22
2024-04-25T07:18:08.326Z,2.23
2024-04-25T07:20:36.038Z,2.18
2024-04-25T07:23:03.156Z,2.00
2024-04-25T07:25:33.107Z,2.15
2024-04-25T07:28:00.024Z,2.04
2024-04-25T07:30:27.076Z,1.94
2024-04-25T07:32:55.849Z,2.11
2024-04-25T07:35:23.024Z,2.16
2024-04-25T07:37:50.179Z,2.21
2024-04-25T07:40:17.348Z,2.26
2024-04-25T07:42:46.949Z,2.33
2024-04-25T07:45:14.098Z,2.39
2024-04-25T07:47:41.310Z,2.41
2024-04-25T07:50:08.547Z,2.44
2024-04-25T07:52:35.847Z,2.48
2024-04-25T07:55:03.139Z,2.37
2024-04-25T07:57:30.322Z,2.56
2024-04-25T08:00:00.740Z,2.46
2024-04-25T08:02:28.646Z,2.62
2024-04-25T08:04:57.061Z,2.62
2024-04-25T08:07:27.347Z,2.67
2024-04-25T08:09:57.667Z,2.51
2024-04-25T08:12:26.282Z,2.53
2024-04-25T08:14:53.503Z,2.65
2024-04-25T08:17:23.374Z,2.72
2024-04-25T08:19:54.097Z,2.83
2024-04-25T08:22:22.715Z,2.85
2024-04-25T08:24:50.087Z,2.77
2024-04-25T08:27:17.196Z,2.72
2024-04-25T08:29:44.388Z,2.65
2024-04-25T08:32:11.427Z,2.68
2024-04-25T08:34:41.106Z,2.79
2024-04-25T08:37:08.192Z,2.66
2024-04-25T08:39:35.190Z,2.65
2024-04-25T08:42:07.201Z,2.57
2024-04-25T08:44:34.477Z,2.49
2024-04-25T08:47:03.065Z,2.62
2024-04-25T08:49:34.285Z,2.70
2024-04-25T08:52:05.856Z,2.71
2024-04-25T08:54:33.288Z,2.74
2024-04-25T08:57:00.317Z,2.74
2024-04-25T08:59:27.518Z,2.58
2024-04-25T09:01:56.556Z,2.55
2024-04-25T09:04:31.094Z,2.59
2024-04-25T09:06:59.710Z,2.51
2024-04-25T09:09:30.023Z,2.61
2024-04-25T09:11:57.039Z,2.60
2024-04-25T09:14:25.220Z,2.45
2024-04-25T09:16:52.262Z,2.58
2024-04-25T09:19:22.979Z,2.58
2024-04-25T09:21:50.092Z,2.54
2024-04-25T09:24:17.606Z,2.65
2024-04-25T09:26:47.966Z,2.52
2024-04-25T09:29:15.432Z,2.45
2024-04-25T09:31:42.934Z,2.59
2024-04-25T09:34:10.086Z,2.67
2024-04-25T09:36:37.766Z,2.61
2024-04-25T09:39:05.106Z,2.67
2024-04-25T09:41:32.137Z,2.68
2024-04-25T09:44:02.283Z,2.73
2024-04-25T09:46:33.937Z,2.76
2024-04-25T09:49:04.605Z,2.69
2024-04-25T09:51:37.494Z,2.76
2024-04-25T09:54:11.216Z,2.90
2024-04-25T09:56:40.175Z,2.83
2024-04-25T09:59:22.908Z,2.99
2024-04-25T10:01:53.134Z,3.01
2024-04-25T10:04:22.618Z,2.95
2024-04-25T10:06:49.962Z,3.02
2024-04-25T10:09:17.492Z,3.11
2024-04-25T10:11:48.116Z,2.97
2024-04-25T10:14:40.790Z,2.97
2024-04-25T10:17:07.939Z,3.01
2024-04-25T10:19:35.956Z,2.95
2024-04-25T10:22:03.103Z,2.94
2024-04-25T10:24:30.170Z,2.78
2024-04-25T10:26:57.262Z,2.96
2024-04-25T10:29:33.436Z,2.95
2024-04-25T10:32:00.405Z,2.97
2024-04-25T10:34:27.440Z,3.13
2024-04-25T10:36:54.474Z,3.26
2024-04-25T10:39:21.414Z,3.38
2024-04-25T10:41:48.649Z,3.31
2024-04-25T10:44:15.906Z,3.13
2024-04-25T10:46:45.531Z,3.08
2024-04-25T10:49:14.106Z,3.00
2024-04-25T10:51:42.020Z,2.90
2024-04-25T10:54:09.258Z,3.00
2024-04-25T10:56:38.780Z,3.16
2024-04-25T10:59:05.824Z,3.13
2024-04-25T11:01:33.078Z,3.16
2024-04-25T11:04:07.372Z,3.06
2024-04-25T11:06:37.968Z,2.88
2024-04-25T11:09:11.144Z,3.07
2024-04-25T11:11:38.874Z,3.18
2024-04-25T11:14:07.424Z,3.01
2024-04-25T11:16:38.397Z,3.08
2024-04-25T11:19:15.299Z,3.20
2024-04-25T11:21:46.886Z,3.06
2024-04-25T11:24:17.492Z,3.30
2024-04-25T11:26:44.762Z,3.30
2024-04-25T11:29:12.311Z,3.32
2024-04-25T11:31:39.821Z,3.35
2024-04-25T11:34:21.081Z,3.42
2024-04-25T11:36:59.247Z,3.54
2024-04-25T11:39:26.263Z,3.60
2024-04-25T11:41:53.430Z,3.60
2024-04-25T11:44:20.674Z,3.73
2024-04-25T11:46:48.171Z,3.68
2024-04-25T11:49:17.922Z,3.61
2024-04-25T11:51:47.701Z,3.75
2024-04-25T11:54:14.780Z,4.02
2024-04-25T11:56:41.739Z,3.91
2024-04-25T11:59:08.917Z,3.81
2024-04-25T12:01:36.025Z,3.89
2024-04-25T12:04:03.080Z,3.97
2024-04-25T12:06:32.773Z,4.19
2024-04-25T12:08:59.856Z,4.24
2024-04-25T12:11:26.859Z,4.39
2024-04-25T12:13:53.876Z,4.48
2024-04-25T12:16:21.092Z,4.36
2024-04-25T12:18:48.125Z,4.27
2024-04-25T12:21:15.101Z,4.34
2024-04-25T12:23:44.903Z,4.36
2024-04-25T12:26:11.980Z,4.26
2024-04-25T12:28:39.484Z,4.28
2024-04-25T12:31:09.197Z,4.31
2024-04-25T12:33:38.795Z,4.00
2024-04-25T12:36:06.450Z,3.92
2024-04-25T12:38:33.721Z,4.00
2024-04-25T12:41:03.581Z,4.02
2024-04-25T12:43:30.491Z,3.91
2024-04-25T12:46:03.259Z,3.91
2024-04-25T12:48:31.548Z,3.68
2024-04-25T12:50:59.274Z,3.67
2024-04-25T12:53:26.433Z,3.69
2024-04-25T12:55:53.408Z,3.84
2024-04-25T12:58:23.129Z,3.94
2024-04-25T13:00:50.066Z,3.86
2024-04-25T13:03:17.071Z,3.81
2024-04-25T13:05:44.533Z,3.93
2024-04-25T13:08:11.559Z,4.04
2024-04-25T13:10:38.614Z,3.87
2024-04-25T13:13:06.075Z,3.66
2024-04-25T13:15:35.620Z,3.52
2024-04-25T13:18:02.794Z,3.59
2024-04-25T13:20:29.996Z,3.65
2024-04-25T13:22:57.034Z,3.71
2024-04-25T13:25:24.170Z,3.66
2024-04-25T13:27:51.404Z,3.39
2024-04-25T13:30:18.338Z,3.55
2024-04-25T13:32:52.417Z,3.40
2024-04-25T13:35:20.096Z,3.37
2024-04-25T13:37:47.124Z,3.34
2024-04-25T13:40:14.081Z,3.62
2024-04-25T13:42:41.296Z,3.37
2024-04-25T13:45:08.645Z,3.34
2024-04-25T13:47:35.798Z,3.30
2024-04-25T13:50:06.200Z,3.28
2024-04-25T13:52:32.902Z,3.37
2024-04-25T13:54:59.893Z,3.33
2024-04-25T13:57:27.054Z,3.44
2024-04-25T13:59:54.155Z,3.29
2024-04-25T14:02:21.151Z,3.34
2024-04-25T14:04:48.224Z,3.33
2024-04-25T14:07:17.806Z,3.40
2024-04-25T14:09:44.801Z,3.40
2024-04-25T14:12:12.107Z,3.55
2024-04-25T14:14:39.267Z,3.54
2024-04-25T14:17:06.253Z,3.27
2024-04-25T14:19:33.409Z,3.22
2024-04-25T14:22:00.326Z,3.24
2024-04-25T14:24:32.884Z,3.18
2024-04-25T14:27:18.816Z,3.23
2024-04-25T14:29:45.852Z,3.11
2024-04-25T14:32:12.935Z,2.96
2024-04-25T14:34:41.242Z,3.03
2024-04-25T14:37:08.397Z,3.13
2024-04-25T14:39:38.078Z,3.26
2024-04-25T14:42:05.154Z,3.28
2024-04-25T14:44:32.132Z,3.39
2024-04-25T14:47:00.302Z,3.36
2024-04-25T14:49:29.653Z,3.12
2024-04-25T14:51:56.564Z,3.25
2024-04-25T14:54:23.588Z,3.26
2024-04-25T14:56:53.262Z,3.26
2024-04-25T14:59:20.226Z,3.14
2024-04-25T15:01:49.295Z,3.18
2024-04-25T15:04:18.034Z,3.10
2024-04-25T15:06:44.960Z,3.08
2024-04-25T15:09:13.783Z,2.99
2024-04-25T15:11:40.930Z,2.85
2024-04-25T15:14:10.596Z,2.90
2024-04-25T15:16:41.871Z,2.76
2024-04-25T15:19:09.092Z,2.73
2024-04-25T15:21:36.007Z,2.81
2024-04-25T15:24:05.418Z,2.94
2024-04-25T15:26:32.643Z,2.86
2024-04-25T15:28:59.579Z,2.95
2024-04-25T15:31:29.298Z,2.75
2024-04-25T15:33:56.494Z,2.70
2024-04-25T15:36:23.432Z,2.73
2024-04-25T15:38:50.571Z,2.70
2024-04-25T15:41:20.332Z,2.60
2024-04-25T15:43:47.273Z,2.59
2024-04-25T15:46:15.292Z,2.55
2024-04-25T15:48:47.883Z,2.42
2024-04-25T15:51:16.901Z,2.47
2024-04-25T15:53:43.924Z,2.47
2024-04-25T15:56:11.112Z,2.39
2024-04-25T15:58:39.572Z,2.43
2024-04-25T16:01:08.121Z,2.43
2024-04-25T16:03:35.480Z,2.35
2024-04-25T16:06:05.980Z,2.37
2024-04-25T16:08:32.797Z,2.35
2024-04-25T16:10:59.974Z,2.37
2024-04-25T16:13:27.094Z,2.28
2024-04-25T16:15:54.076Z,2.32
2024-04-25T16:18:21.095Z,2.23
2024-04-25T16:20:48.400Z,2.25
2024-04-25T16:23:18.676Z,2.13
2024-04-25T16:25:45.780Z,2.24
2024-04-25T16:28:12.893Z,2.25
2024-04-25T16:30:39.863Z,2.26
2024-04-25T16:33:07.131Z,2.23
2024-04-25T16:35:34.611Z,2.30
2024-04-25T16:38:01.623Z,2.27
2024-04-25T16:40:33.139Z,2.22
2024-04-25T16:43:00.207Z,2.15
2024-04-25T16:45:28.582Z,2.14
2024-04-25T16:47:55.761Z,1.96
2024-04-25T16:50:22.941Z,2.01
2024-04-25T16:52:50.189Z,1.97
2024-04-25T16:55:17.354Z,1.84
2024-04-25T16:57:49.791Z,1.91
2024-04-25T17:00:17.411Z,1.90
2024-04-25T17:02:46.873Z,1.81
2024-04-25T17:05:14.059Z,1.93
2024-04-25T17:07:41.019Z,1.92
2024-04-25T17:10:08.726Z,1.93
2024-04-25T17:12:35.721Z,1.87
2024-04-25T17:15:06.012Z,1.81
2024-04-25T17:17:32.933Z,1.79
2024-04-25T17:19:59.962Z,1.75
2024-04-25T17:22:26.867Z,1.78
2024-04-25T17:24:53.934Z,1.74
2024-04-25T17:27:20.935Z,1.75
2024-04-25T17:29:47.913Z,1.76
2024-04-25T17:32:21.222Z,1.70
2024-04-25T17:34:52.236Z,1.75
2024-04-25T17:37:19.267Z,1.76
2024-04-25T17:39:48.504Z,1.67
2024-04-25T17:42:15.502Z,1.64
2024-04-25T17:44:46.814Z,1.61
2024-04-25T17:47:14.122Z,1.57
2024-04-25T17:49:44.174Z,1.59
2024-04-25T17:52:11.166Z,1.56
2024-04-25T17:54:38.174Z,1.58
2024-04-25T17:57:05.782Z,1.55
2024-04-25T17:59:32.906Z,1.58
2024-04-25T18:02:02.870Z,1.57
2024-04-25T18:04:29.908Z,1.52
2024-04-25T18:07:02.754Z,1.44
2024-04-25T18:09:29.799Z,1.50
2024-04-25T18:11:56.969Z,1.37
2024-04-25T18:14:23.995Z,1.42
2024-04-25T18:16:51.096Z,1.41
2024-04-25T18:19:18.194Z,1.43
2024-04-25T18:21:45.410Z,1.41
2024-04-25T18:24:17.925Z,1.52
2024-04-25T18:26:47.186Z,1.51
2024-04-25T18:29:14.279Z,1.47
2024-04-25T18:31:41.424Z,1.47
2024-04-25T18:34:08.538Z,1.46
2024-04-25T18:36:35.606Z,1.43
2024-04-25T18:39:02.629Z,1.39
2024-04-25T18:41:32.401Z,1.46
2024-04-25T18:43:59.671Z,1.38
2024-04-25T18:46:27.353Z,1.42
2024-04-25T18:48:54.966Z,1.44
2024-04-25T18:51:22.088Z,1.39
2024-04-25T18:53:53.468Z,1.45
2024-04-25T18:56:20.590Z,1.45
2024-04-25T18:58:54.316Z,1.39
2024-04-25T19:01:21.510Z,1.40
2024-04-25T19:03:48.649Z,1.43
2024-04-25T19:06:16.134Z,1.42
2024-04-25T19:08:43.222Z,1.38
2024-04-25T19:11:10.179Z,1.42
2024-04-25T19:13:39.583Z,1.41
2024-04-25T19:16:20.195Z,1.37
2024-04-25T19:18:47.209Z,1.37
2024-04-25T19:21:14.263Z,1.38
2024-04-25T19:23:41.260Z,1.38
2024-04-25T19:26:10.761Z,1.31
2024-04-25T19:28:37.939Z,1.41
2024-04-25T19:31:05.684Z,1.30
2024-04-25T19:33:37.666Z,1.28
2024-04-25T19:36:04.940Z,1.33
2024-04-25T19:38:31.952Z,1.20
2024-04-25T19:40:59.915Z,1.24
2024-04-25T19:43:29.402Z,1.28
2024-04-25T19:45:56.300Z,1.23
2024-04-25T19:48:25.321Z,1.21
2024-04-25T19:50:55.126Z,1.30
2024-04-25T19:53:22.258Z,1.32
2024-04-25T19:55:49.358Z,1.20
2024-04-25T19:58:17.915Z,1.25
2024-04-25T20:00:47.325Z,1.28
2024-04-25T20:03:15.543Z,1.29
2024-04-25T20:05:47.168Z,1.24
2024-04-25T20:08:16.894Z,1.21
2024-04-25T20:10:43.927Z,1.17
2024-04-25T20:13:11.183Z,1.23
2024-04-25T20:15:38.200Z,1.28
2024-04-25T20:18:24.306Z,1.20
2024-04-25T20:21:04.102Z,1.25
2024-04-25T20:23:37.946Z,1.22
2024-04-25T20:26:07.381Z,1.25
2024-04-25T20:28:34.595Z,1.32
2024-04-25T20:31:01.592Z,1.29
2024-04-25T20:33:29.072Z,1.27
2024-04-25T20:35:56.698Z,1.24
2024-04-25T20:38:23.658Z,1.30
2024-04-25T20:40:54.184Z,1.30
2024-04-25T20:43:21.262Z,1.23
2024-04-25T20:45:48.272Z,1.19
2024-04-25T20:48:15.407Z,1.31
2024-04-25T20:50:45.806Z,1.28
2024-04-25T20:53:13.718Z,1.34
2024-04-25T20:55:40.810Z,1.32
2024-04-25T20:58:10.531Z,1.32
2024-04-25T21:00:37.517Z,1.28
2024-04-25T21:03:05.138Z,1.29
2024-04-25T21:05:32.381Z,1.27
2024-04-25T21:07:59.319Z,1.29
2024-04-25T21:10:26.476Z,1.30
2024-04-25T21:12:53.509Z,1.32
2024-04-25T21:15:23.146Z,1.33
2024-04-25T21:17:50.315Z,1.36
2024-04-25T21:20:17.605Z,1.29
2024-04-25T21:22:44.584Z,1.35
2024-04-25T21:25:11.857Z,1.36
2024-04-25T21:27:38.917Z,1.36
2024-04-25T21:30:06.921Z,1.29
2024-04-25T21:32:43.280Z,1.36
2024-04-25T21:35:12.550Z,1.36
2024-04-25T21:37:40.019Z,1.34
2024-04-25T21:40:07.824Z,1.34
2024-04-25T21:42:34.888Z,1.34
2024-04-25T21:45:04.202Z,1.32
2024-04-25T21:47:31.368Z,1.32
2024-04-25T21:50:01.189Z,1.31
2024-04-25T21:52:28.275Z,1.17
2024-04-25T21:54:55.234Z,1.28
2024-04-25T21:57:23.274Z,1.27
2024-04-25T21:59:50.537Z,1.27
2024-04-25T22:02:18.226Z,1.24
2024-04-25T22:04:45.225Z,1.22
2024-04-25T22:07:15.724Z,1.32
2024-04-25T22:09:42.672Z,1.20
2024-04-25T22:12:11.911Z,1.28
2024-04-25T22:14:40.709Z,1.22
2024-04-25T22:17:07.937Z,1.33
2024-04-25T22:19:34.919Z,1.31
2024-04-25T22:22:04.912Z,1.22
2024-04-25T22:24:34.492Z,1.30
2024-04-25T22:27:02.345Z,1.28
2024-04-25T22:29:29.721Z,1.25
2024-04-25T22:31:56.693Z,1.23
2024-04-25T22:34:23.602Z,1.27
2024-04-25T22:36:50.975Z,1.27
2024-04-25T22:39:18.097Z,1.24
2024-04-25T22:41:47.725Z,1.13
2024-04-25T22:44:14.783Z,1.19
2024-04-25T22:46:41.791Z,1.23
2024-04-25T22:49:09.831Z,1.19
2024-04-25T22:51:39.687Z,1.10
2024-04-25T22:54:07.301Z,1.12
2024-04-25T22:56:34.294Z,1.06
2024-04-25T22:59:03.970Z,1.06
2024-04-25T23:01:31.754Z,1.08
2024-04-25T23:03:59.243Z,1.04
2024-04-25T23:06:26.252Z,0.99
2024-04-25T23:08:53.364Z,0.98
2024-04-25T23:11:20.724Z,0.99
2024-04-25T23:13:47.973Z,0.96
2024-04-25T23:16:18.369Z,0.85
2024-04-25T23:18:45.367Z,0.79
2024-04-25T23:21:12.464Z,0.74
2024-04-25T23:23:39.934Z,0.75
2024-04-25T23:26:07.031Z,0.68
2024-04-25T23:28:34.209Z,0.66
2024-04-25T23:31:01.328Z,0.63
2024-04-25T23:33:31.113Z,0.55
2024-04-25T23:35:58.390Z,0.57
2024-04-25T23:38:25.638Z,0.57
2024-04-25T23:40:52.620Z,0.57
2024-04-25T23:43:19.666Z,0.49
2024-04-25T23:45:46.622Z,0.39
2024-04-25T23:48:13.746Z,0.30
2024-04-25T23:50:44.667Z,0.31
2024-04-25T23:53:11.578Z,0.30
2024-04-25T23:55:38.677Z,0.31
2024-04-25T23:58:05.792Z,0.30
